MDSDTJSJ

Guest
Details From MDSD - Las Americas Intl
To TJSJ - San Juan - Luis Munoz Marin Intl
Flight Number -
Tags Generated
Created
Modified
Stats Distance 209 nm / 386 km
Max Altitude 0 ft / 0 m
Waypoints 2
Social Downloads 3
Likes 0
Share VATSIM

Download

Looking for another format? Having issues loading an existing format? Contact us
Advertisement - Login to hide

Notes

Generated

Route

MDSD TJSJ

ID Type Via Altitude Latitude Longitude Leg Dist Tot Dist Heading (true) Name
O MDSD APT - 0 ft / 0 m 18.44396˚ -69.67418˚ - 0 nm - -
O TJSJ APT - 0 ft / 0 m 18.43356˚ -66.01373˚ 208 nm 208 nm 90° / 91° -

Altitude Profile

Advertisement - Login to hide

Weather


0- 5 10 15 20 25 30 35+ Temperature / ° C

Clouds and Precipitation
Forecast for 2018-05-26 00:00 UTC. Updated an hour ago

Ground ~20,000 ft ~40,000 ft Winds

MDSD

Details ICAO MDSD (SDQ)
Name Las Americas Intl
Region Dominican Republic
Timezone America/Santo_Domingo (UTC-4.0)
Stats Elevation 59 ft / 18 m (AMSL)
Location 18.429662° -69.668925°
Runways 1
Magnetic Variation 11.568° W

METAR

MDSD 260000Z 14004KT 9999 SCT018 27/23 Q1014

Decode

TAF

Not found

Departure Runways

ID Width Length Bearing (true) Bearing (mag) Surface Threshold Offset Overrun Length
17 200 ft / 61 m 11,051 ft / 3,368 m 160.78° 172.35° Asphalt 0 ft / 0 m 0 ft / 0 m
35 200 ft / 61 m 11,051 ft / 3,368 m 340.79° 352.36° Asphalt 0 ft / 0 m 0 ft / 0 m

TJSJ

Details ICAO TJSJ (SJU)
Name San Juan - Luis Munoz Marin Intl
Region USA (Puerto Rico)
Timezone America/Puerto_Rico (UTC-4.0)
Stats Elevation 9 ft / 3 m (AMSL)
Location 18.438777° -66.002018°
Runways 2
Magnetic Variation 13.242° W

METAR

TJSJ 252356Z 09010KT 10SM FEW045 26/24 A3001

Decode

TAF

TAF TJSJ 252339Z 2600/2624 09009KT P6SM FEW030 SCT090 FM260800 10005KT P6SM VCSH SCT025 SCT050 FM261400 08014KT P6SM FEW025 SCT050 FM261800 07015G22KT P6SM VCSH SCT025 SCT040

Decode

Destination Runways

ID Width Length Bearing (true) Bearing (mag) Surface Threshold Offset Overrun Length
08 200 ft / 61 m 9,781 ft / 2,981 m 66.87° 80.11° Asphalt 0 ft / 0 m 200 ft / 61 m
10 151 ft / 46 m 8,007 ft / 2,440 m 90.14° 103.38° Concrete 0 ft / 0 m 200 ft / 61 m
26 200 ft / 61 m 9,781 ft / 2,981 m 246.88° 260.12° Asphalt 0 ft / 0 m 230 ft / 70 m
28 151 ft / 46 m 8,007 ft / 2,440 m 270.15° 283.39° Concrete 0 ft / 0 m 200 ft / 61 m

Approach Navaids

Runway Type Ident Frequency Range Bearing (true) Bearing (mag) Slope Elevation
08 Localiser ISJU 110.30 MHz 18 nm / 33 km 66.88° 80.12° - 5 ft / 2 m (AMSL)
08 Glidescope ISJU 110.30 MHz 10 nm / 19 km 66.87° 80.11° 3.00° 9 ft / 3 m (AMSL)
10 Localiser ICLA 109.70 MHz 18 nm / 33 km 90.15° 103.39° - 9 ft / 3 m (AMSL)
10 Glidescope ICLA 109.70 MHz 10 nm / 19 km 90.14° 103.39° 3.00° 8 ft / 2 m (AMSL)

Popular Alternatives